createdAt,value
2019-04-03T00:01:41.362Z,101331.17
2019-04-03T00:04:11.843Z,101314.85
2019-04-03T00:06:42.369Z,101324.75
2019-04-03T00:09:13.185Z,101322.13
2019-04-03T00:11:43.475Z,101315.99
2019-04-03T00:14:13.823Z,101317.52
2019-04-03T00:16:45.583Z,101316.45
2019-04-03T00:19:17.715Z,101316.45
2019-04-03T00:21:48.740Z,101311.40
2019-04-03T00:24:22.148Z,101311.48
2019-04-03T00:26:52.959Z,101312.98
2019-04-03T00:29:23.528Z,101320.30
2019-04-03T00:31:54.036Z,101313.98
2019-04-03T00:34:24.385Z,101311.89
2019-04-03T00:36:54.771Z,101313.95
2019-04-03T00:39:25.142Z,101316.20
2019-04-03T00:41:55.616Z,101306.27
2019-04-03T00:44:25.987Z,101305.51
2019-04-03T00:46:56.271Z,101304.11
2019-04-03T00:49:26.626Z,101309.79
2019-04-03T00:51:57.992Z,101310.83
2019-04-03T00:54:30.877Z,101307.48
2019-04-03T00:57:01.179Z,101312.13
2019-04-03T00:59:31.624Z,101317.63
2019-04-03T01:02:02.111Z,101319.95
2019-04-03T01:04:32.424Z,101312.63
2019-04-03T01:07:02.736Z,101313.47
2019-04-03T01:09:33.082Z,101314.81
2019-04-03T01:12:03.396Z,101321.23
2019-04-03T01:14:33.773Z,101317.39
2019-04-03T01:17:04.700Z,101313.87
2019-04-03T01:19:36.740Z,101318.80
2019-04-03T01:22:08.034Z,101324.41
2019-04-03T01:24:39.051Z,101332.17
2019-04-03T01:27:11.196Z,101331.58
2019-04-03T01:29:42.907Z,101328.50
2019-04-03T01:32:15.125Z,101323.73
2019-04-03T01:34:47.323Z,101319.33
2019-04-03T01:37:19.171Z,101322.60
2019-04-03T01:39:50.860Z,101325.73
2019-04-03T01:42:22.577Z,101326.45
2019-04-03T01:44:55.132Z,101326.05
2019-04-03T01:47:27.358Z,101325.72
2019-04-03T01:49:58.767Z,101321.72
2019-04-03T01:52:31.783Z,101323.42
2019-04-03T01:55:04.092Z,101320.19
2019-04-03T01:57:36.233Z,101326.89
2019-04-03T02:00:08.234Z,101321.30
2019-04-03T02:02:39.261Z,101320.69
2019-04-03T02:05:12.033Z,101319.38
2019-04-03T02:07:44.199Z,101316.77
2019-04-03T02:10:18.171Z,101323.38
2019-04-03T02:12:50.627Z,101317.52
2019-04-03T02:15:21.618Z,101323.01
2019-04-03T02:17:54.247Z,101326.05
2019-04-03T02:20:26.530Z,101317.24
2019-04-03T02:22:59.633Z,101319.86
2019-04-03T02:25:31.561Z,101319.93
2019-04-03T02:28:01.880Z,101314.23
2019-04-03T02:30:33.290Z,101310.73
2019-04-03T02:33:03.711Z,101325.88
2019-04-03T02:35:34.184Z,101324.06
2019-04-03T02:38:04.718Z,101323.56
2019-04-03T02:40:35.220Z,101318.84
2019-04-03T02:43:05.755Z,101315.89
2019-04-03T02:45:36.123Z,101312.56
2019-04-03T02:48:06.758Z,101316.08
2019-04-03T02:50:37.238Z,101311.58
2019-04-03T02:53:08.105Z,101310.42
2019-04-03T02:55:40.081Z,101302.39
2019-04-03T02:58:10.749Z,101315.61
2019-04-03T03:00:41.240Z,101313.09
2019-04-03T03:03:11.630Z,101322.09
2019-04-03T03:05:42.073Z,101312.56
2019-04-03T03:08:12.691Z,101315.61
2019-04-03T03:10:43.485Z,101311.61
2019-04-03T03:13:14.260Z,101315.02
2019-04-03T03:15:45.374Z,101315.49
2019-04-03T03:18:16.103Z,101315.23
2019-04-03T03:20:46.930Z,101323.67
2019-04-03T03:23:17.525Z,101328.76
2019-04-03T03:25:54.318Z,101313.98
2019-04-03T03:28:25.034Z,101316.75
2019-04-03T03:31:02.716Z,101325.30
2019-04-03T03:33:35.712Z,101327.82
2019-04-03T03:36:02.523Z,101319.62
2019-04-03T03:38:33.487Z,101324.51
2019-04-03T03:41:04.147Z,101313.09
2019-04-03T03:43:38.371Z,101312.34
2019-04-03T03:46:07.789Z,101315.64
2019-04-03T03:48:42.845Z,101319.09
2019-04-03T03:51:14.672Z,101320.59
2019-04-03T03:53:47.522Z,101322.44
2019-04-03T03:56:20.966Z,101325.63
2019-04-03T03:58:52.067Z,101325.65
2019-04-03T04:01:23.729Z,101315.95
2019-04-03T04:03:54.131Z,101322.23
2019-04-03T04:06:27.954Z,101324.56
2019-04-03T04:08:56.978Z,101326.99
2019-04-03T04:11:30.804Z,101320.88
2019-04-03T04:14:00.499Z,101326.11
2019-04-03T04:16:31.055Z,101324.20
2019-04-03T04:19:01.505Z,101322.62
2019-04-03T04:21:32.594Z,101333.41
2019-04-03T04:24:03.359Z,101331.68
2019-04-03T04:26:34.110Z,101326.86
2019-04-03T04:29:04.921Z,101323.37
2019-04-03T04:31:35.340Z,101334.16
2019-04-03T04:34:05.763Z,101328.92
2019-04-03T04:36:36.208Z,101333.98
2019-04-03T04:39:08.875Z,101332.51
2019-04-03T04:41:39.316Z,101327.58
2019-04-03T04:44:10.308Z,101324.75
2019-04-03T04:46:43.702Z,101322.72
2019-04-03T04:49:13.161Z,101323.59
2019-04-03T04:51:43.591Z,101324.25
2019-04-03T04:54:13.990Z,101321.23
2019-04-03T04:56:44.432Z,101324.92
2019-04-03T04:59:14.833Z,101317.67
2019-04-03T05:01:45.365Z,101324.98
2019-04-03T05:04:16.004Z,101317.33
2019-04-03T05:06:46.471Z,101321.58
2019-04-03T05:09:16.913Z,101321.69
2019-04-03T05:11:47.320Z,101320.73
2019-04-03T05:14:18.320Z,101320.34
2019-04-03T05:16:48.948Z,101316.66
2019-04-03T05:19:20.136Z,101310.82
2019-04-03T05:21:50.805Z,101314.53
2019-04-03T05:24:22.689Z,101308.15
2019-04-03T05:26:53.145Z,101317.41
2019-04-03T05:29:23.549Z,101315.23
2019-04-03T05:31:54.142Z,101312.70
2019-04-03T05:34:24.515Z,101311.84
2019-04-03T05:36:54.914Z,101313.70
2019-04-03T05:39:25.356Z,101311.48
2019-04-03T05:41:58.611Z,101308.09
2019-04-03T05:44:32.813Z,101302.43
2019-04-03T05:47:02.082Z,101311.91
2019-04-03T05:49:32.512Z,101300.38
2019-04-03T05:52:04.093Z,101300.88
2019-04-03T05:54:35.098Z,101294.87
2019-04-03T05:57:05.785Z,101299.03
2019-04-03T05:59:36.074Z,101300.51
2019-04-03T06:02:14.643Z,101302.95
2019-04-03T06:04:40.176Z,101301.13
2019-04-03T06:07:10.647Z,101309.89
2019-04-03T06:09:41.093Z,101309.23
2019-04-03T06:12:13.891Z,101307.01
2019-04-03T06:14:43.566Z,101310.72
2019-04-03T06:17:14.098Z,101302.24
2019-04-03T06:19:44.551Z,101303.52
2019-04-03T06:22:17.077Z,101306.19
2019-04-03T06:24:48.746Z,101301.50
2019-04-03T06:27:19.993Z,101303.88
2019-04-03T06:29:53.464Z,101303.02
2019-04-03T06:32:24.542Z,101306.41
2019-04-03T06:34:54.633Z,101302.52
2019-04-03T06:37:25.033Z,101298.58
2019-04-03T06:39:55.733Z,101305.84
2019-04-03T06:42:26.451Z,101302.13
2019-04-03T06:44:56.917Z,101300.55
2019-04-03T06:47:27.292Z,101308.17
2019-04-03T06:49:57.621Z,101303.41
2019-04-03T06:52:28.699Z,101304.20
2019-04-03T06:54:59.123Z,101292.80
2019-04-03T06:57:29.753Z,101305.84
2019-04-03T07:00:00.075Z,101304.91
2019-04-03T07:02:32.044Z,101303.22
2019-04-03T07:05:04.447Z,101302.55
2019-04-03T07:07:36.695Z,101297.19
2019-04-03T07:10:09.195Z,101299.88
2019-04-03T07:12:39.912Z,101301.25
2019-04-03T07:15:10.301Z,101293.49
2019-04-03T07:17:40.738Z,101300.23
2019-04-03T07:20:14.809Z,101296.62
2019-04-03T07:22:43.625Z,101291.64
2019-04-03T07:25:14.153Z,101297.08
2019-04-03T07:27:44.549Z,101289.84
2019-04-03T07:30:17.003Z,101286.80
2019-04-03T07:32:47.332Z,101290.52
2019-04-03T07:35:17.878Z,101288.01
2019-04-03T07:37:49.024Z,101288.23
2019-04-03T07:40:26.035Z,101288.08
2019-04-03T07:43:07.182Z,101288.83
2019-04-03T07:45:38.016Z,101291.50
2019-04-03T07:48:10.305Z,101287.80
2019-04-03T07:50:41.971Z,101282.97
2019-04-03T07:53:12.813Z,101284.51
2019-04-03T07:55:44.328Z,101280.89
2019-04-03T07:58:14.927Z,101273.09
2019-04-03T08:00:45.350Z,101271.17
2019-04-03T08:03:20.008Z,101276.94
2019-04-03T08:05:55.789Z,101253.45
2019-04-03T08:08:25.482Z,101267.37
2019-04-03T08:10:57.814Z,101266.36
2019-04-03T08:13:28.429Z,101266.86
2019-04-03T08:15:58.801Z,101260.09
2019-04-03T08:18:29.296Z,101262.92
2019-04-03T08:21:02.271Z,101258.45
2019-04-03T08:23:32.794Z,101250.16
2019-04-03T08:26:03.197Z,101251.02
2019-04-03T08:28:33.604Z,101240.66
2019-04-03T08:31:04.275Z,101248.48
2019-04-03T08:33:34.777Z,101237.52
2019-04-03T08:36:07.984Z,101231.31
2019-04-03T08:38:39.257Z,101233.00
2019-04-03T08:41:09.972Z,101226.48
2019-04-03T08:43:40.580Z,101226.03
2019-04-03T08:46:11.088Z,101233.58
2019-04-03T08:48:44.847Z,101219.66
2019-04-03T08:51:15.559Z,101223.37
2019-04-03T08:53:46.042Z,101218.79
2019-04-03T08:56:17.553Z,101232.37
2019-04-03T08:58:49.267Z,101225.30
2019-04-03T09:01:22.745Z,101224.69
2019-04-03T09:03:53.633Z,101217.84
2019-04-03T09:06:27.053Z,101226.83
2019-04-03T09:08:59.389Z,101220.59
2019-04-03T09:11:31.229Z,101220.84
2019-04-03T09:14:02.905Z,101219.85
2019-04-03T09:16:34.738Z,101216.18
2019-04-03T09:19:09.444Z,101217.30
2019-04-03T09:21:38.871Z,101219.90
2019-04-03T09:24:09.365Z,101218.23
2019-04-03T09:26:39.984Z,101212.13
2019-04-03T09:29:13.387Z,101208.03
2019-04-03T09:31:45.218Z,101211.72
2019-04-03T09:34:15.640Z,101216.33
2019-04-03T09:36:46.451Z,101221.84
2019-04-03T09:39:16.947Z,101228.94
2019-04-03T09:41:50.951Z,101224.56
2019-04-03T09:44:21.172Z,101224.03
2019-04-03T09:47:02.913Z,101224.09
2019-04-03T09:49:38.264Z,101219.36
2019-04-03T09:52:12.069Z,101216.94
2019-04-03T09:54:47.782Z,101214.81
2019-04-03T09:57:19.870Z,101219.43
2019-04-03T09:59:53.163Z,101213.39
2019-04-03T10:02:23.861Z,101214.19
2019-04-03T10:04:57.202Z,101205.83
2019-04-03T10:07:27.012Z,101213.32
2019-04-03T10:09:59.278Z,101211.50
2019-04-03T10:12:32.202Z,101210.97
2019-04-03T10:15:05.218Z,101219.48
2019-04-03T10:17:38.510Z,101215.58
2019-04-03T10:20:11.124Z,101197.05
2019-04-03T10:22:41.763Z,101197.11
2019-04-03T10:25:13.659Z,101185.80
2019-04-03T10:27:44.650Z,101197.36
2019-04-03T10:30:16.096Z,101192.64
2019-04-03T10:32:46.849Z,101193.36
2019-04-03T10:35:17.580Z,101188.86
2019-04-03T10:37:49.776Z,101172.07
2019-04-03T10:40:23.611Z,101174.94
2019-04-03T10:42:52.787Z,101179.47
2019-04-03T10:45:24.347Z,101175.87
2019-04-03T10:47:56.360Z,101176.73
2019-04-03T10:50:28.651Z,101178.89
2019-04-03T10:52:59.387Z,101188.94
2019-04-03T10:55:31.396Z,101168.42
2019-04-03T10:58:02.613Z,101174.05
2019-04-03T11:00:35.072Z,101175.03
2019-04-03T11:03:05.581Z,101152.45
2019-04-03T11:05:36.112Z,101158.06
2019-04-03T11:08:08.242Z,101140.25
2019-04-03T11:10:38.729Z,101151.35
2019-04-03T11:13:09.175Z,101143.61
2019-04-03T11:15:39.667Z,101147.19
2019-04-03T11:18:10.159Z,101148.35
2019-04-03T11:20:41.459Z,101154.65
2019-04-03T11:23:11.913Z,101146.46
2019-04-03T11:25:44.034Z,101130.61
2019-04-03T11:28:14.741Z,101130.30
2019-04-03T11:30:45.317Z,101124.58
2019-04-03T11:33:16.476Z,101121.87
2019-04-03T11:35:47.041Z,101094.73
2019-04-03T11:38:26.376Z,101116.75
2019-04-03T11:40:51.151Z,101115.27
2019-04-03T11:43:21.904Z,101116.03
2019-04-03T11:45:57.547Z,101106.91
2019-04-03T11:48:31.785Z,101105.03
2019-04-03T11:51:03.188Z,101098.95
2019-04-03T11:53:36.858Z,101099.78
2019-04-03T11:56:07.533Z,101115.97
2019-04-03T11:58:40.970Z,101109.75
2019-04-03T12:01:15.797Z,101095.64
2019-04-03T12:03:45.398Z,101099.70
2019-04-03T12:06:16.521Z,101088.41
2019-04-03T12:08:48.131Z,101081.50
2019-04-03T12:11:18.600Z,101094.48
2019-04-03T12:13:49.394Z,101093.11
2019-04-03T12:16:23.977Z,101087.00
2019-04-03T12:18:53.870Z,101074.84
2019-04-03T12:21:24.512Z,101074.19
2019-04-03T12:23:57.721Z,101073.70
2019-04-03T12:26:28.685Z,101072.48
2019-04-03T12:28:59.352Z,101078.78
2019-04-03T12:31:29.871Z,101084.65
2019-04-03T12:34:04.523Z,101088.78
2019-04-03T12:36:33.494Z,101091.39
2019-04-03T12:39:05.615Z,101084.58
2019-04-03T12:41:37.341Z,101085.36
2019-04-03T12:44:09.111Z,101085.58
2019-04-03T12:46:41.608Z,101081.45
2019-04-03T12:49:11.829Z,101094.69
2019-04-03T12:51:42.371Z,101081.61
2019-04-03T12:54:13.982Z,101080.97
2019-04-03T12:56:47.593Z,101080.97
2019-04-03T12:59:20.196Z,101085.34
2019-04-03T13:01:51.050Z,101076.16
2019-04-03T13:04:21.548Z,101076.16
2019-04-03T13:06:52.081Z,101087.00
2019-04-03T13:09:22.723Z,101096.39
2019-04-03T13:11:53.526Z,101098.81
2019-04-03T13:14:30.197Z,101095.08
2019-04-03T13:17:00.808Z,101096.45
2019-04-03T13:19:31.291Z,101098.28
2019-04-03T13:22:11.969Z,101098.23
2019-04-03T13:24:46.174Z,101085.14
2019-04-03T13:27:17.729Z,101089.55
2019-04-03T13:29:48.168Z,101087.38
2019-04-03T13:32:22.115Z,101084.08
2019-04-03T13:34:55.162Z,101091.12
2019-04-03T13:37:25.622Z,101085.45
2019-04-03T13:39:56.298Z,101084.47
2019-04-03T13:42:26.878Z,101083.59
2019-04-03T13:44:59.282Z,101086.77
2019-04-03T13:47:29.728Z,101090.53
2019-04-03T13:50:02.237Z,101081.60
2019-04-03T13:52:40.053Z,101086.20
2019-04-03T13:55:07.571Z,101090.31
2019-04-03T13:57:38.682Z,101093.56
2019-04-03T14:00:19.646Z,101096.91
2019-04-03T14:02:45.986Z,101093.03
2019-04-03T14:05:15.420Z,101098.27
2019-04-03T14:07:46.135Z,101101.98
2019-04-03T14:10:16.565Z,101095.58
2019-04-03T14:12:47.418Z,101098.22
2019-04-03T14:15:20.401Z,101099.34
2019-04-03T14:17:56.597Z,101100.16
2019-04-03T14:20:25.453Z,101099.70
2019-04-03T14:22:56.443Z,101099.78
2019-04-03T14:25:31.444Z,101102.63
2019-04-03T14:28:02.842Z,101106.17
2019-04-03T14:30:32.364Z,101100.81
2019-04-03T14:33:03.070Z,101097.06
2019-04-03T14:35:48.090Z,101100.77
2019-04-03T14:38:05.708Z,101100.77
2019-04-03T14:40:37.723Z,101099.91
2019-04-03T14:43:08.191Z,101100.41
2019-04-03T14:45:40.074Z,101102.70
2019-04-03T14:48:12.098Z,101108.62
2019-04-03T14:50:42.599Z,101107.06
2019-04-03T14:53:20.217Z,101112.34
2019-04-03T14:55:51.150Z,101111.78
2019-04-03T14:58:21.585Z,101114.38
2019-04-03T15:01:09.976Z,101112.04
2019-04-03T15:03:39.444Z,101109.12
2019-04-03T15:06:09.881Z,101110.30
2019-04-03T15:08:40.638Z,101108.00
2019-04-03T15:11:13.397Z,101107.70
2019-04-03T15:13:44.591Z,101111.44
2019-04-03T15:16:15.330Z,101108.78
2019-04-03T15:18:45.743Z,101100.73
2019-04-03T15:21:16.618Z,101103.70
2019-04-03T15:23:47.484Z,101103.98
2019-04-03T15:26:21.086Z,101097.98
2019-04-03T15:28:50.109Z,101103.92
2019-04-03T15:31:23.202Z,101106.92
2019-04-03T15:33:54.850Z,101108.22
2019-04-03T15:36:25.065Z,101111.47
2019-04-03T15:38:58.422Z,101105.00
2019-04-03T15:41:31.080Z,101110.04
2019-04-03T15:44:00.473Z,101116.53
2019-04-03T15:46:33.975Z,101109.30
2019-04-03T15:49:03.067Z,101120.25
2019-04-03T15:51:33.640Z,101117.67
2019-04-03T15:54:03.939Z,101121.17
2019-04-03T15:56:35.531Z,101121.52
2019-04-03T15:59:06.289Z,101124.23
2019-04-03T16:01:37.119Z,101122.22
2019-04-03T16:04:10.294Z,101123.72
2019-04-03T16:06:40.715Z,101128.17
2019-04-03T16:09:12.803Z,101129.20
2019-04-03T16:11:53.193Z,101127.59
2019-04-03T16:14:28.104Z,101132.11
2019-04-03T16:17:00.676Z,101135.73
2019-04-03T16:19:29.833Z,101144.78
2019-04-03T16:22:00.250Z,101148.10
2019-04-03T16:24:43.920Z,101146.30
2019-04-03T16:27:14.407Z,101154.14
2019-04-03T16:29:44.976Z,101154.92
2019-04-03T16:32:17.129Z,101162.97
2019-04-03T16:34:49.626Z,101163.25
2019-04-03T16:37:21.491Z,101167.78
2019-04-03T16:39:52.582Z,101163.34
2019-04-03T16:42:23.098Z,101167.78
2019-04-03T16:44:53.545Z,101175.27
2019-04-03T16:47:25.450Z,101175.54
2019-04-03T16:49:56.269Z,101170.92
2019-04-03T16:52:28.030Z,101177.79
2019-04-03T16:55:00.936Z,101180.27
2019-04-03T16:57:45.116Z,101181.27
2019-04-03T17:00:32.487Z,101187.91
2019-04-03T17:03:12.076Z,101189.39
2019-04-03T17:05:46.281Z,101194.09
2019-04-03T17:08:21.640Z,101189.63
2019-04-03T17:10:52.155Z,101189.73
2019-04-03T17:13:27.424Z,101195.97
2019-04-03T17:16:03.074Z,101198.16
2019-04-03T17:18:33.955Z,101197.98
2019-04-03T17:21:05.209Z,101197.74
2019-04-03T17:23:35.987Z,101201.80
2019-04-03T17:26:09.318Z,101205.91
2019-04-03T17:28:40.532Z,101201.45
2019-04-03T17:33:44.405Z,101200.69
2019-04-03T17:36:23.224Z,101210.78
2019-04-03T17:39:03.694Z,101213.22
2019-04-03T17:41:37.709Z,101203.16
2019-04-03T17:44:19.462Z,101210.55
2019-04-03T17:46:54.824Z,101209.31
2019-04-03T17:49:28.578Z,101206.00
2019-04-03T17:52:00.516Z,101205.91
2019-04-03T17:54:33.381Z,101204.05
2019-04-03T17:57:06.306Z,101203.61
2019-04-03T17:59:39.448Z,101203.26
2019-04-03T18:02:11.920Z,101201.67
2019-04-03T18:05:07.251Z,101200.84
2019-04-03T18:07:48.705Z,101201.38
2019-04-03T18:10:37.907Z,101198.73
2019-04-03T18:13:18.912Z,101196.91
2019-04-03T18:16:01.051Z,101195.73
2019-04-03T18:19:04.572Z,101193.18
2019-04-03T18:21:49.860Z,101189.00
2019-04-03T18:24:36.220Z,101189.56
2019-04-03T18:27:18.623Z,101185.94
2019-04-03T18:30:28.244Z,101188.08
2019-04-03T18:33:26.414Z,101194.73
2019-04-03T18:36:19.211Z,101196.13
2019-04-03T18:39:06.095Z,101196.98
2019-04-03T18:41:48.282Z,101205.27
2019-04-03T18:44:32.118Z,101198.48
2019-04-03T18:47:18.857Z,101203.59
2019-04-03T18:50:02.720Z,101206.98
2019-04-03T18:52:49.567Z,101208.84
2019-04-03T18:55:34.971Z,101202.78
2019-04-03T18:58:16.390Z,101208.88
2019-04-03T19:00:51.273Z,101210.39
2019-04-03T19:03:26.008Z,101207.17
2019-04-03T19:06:13.429Z,101207.69
2019-04-03T19:08:54.407Z,101205.13
2019-04-03T19:11:34.419Z,101197.53
2019-04-03T19:14:33.421Z,101202.25
2019-04-03T19:17:21.309Z,101204.13
2019-04-03T19:20:10.680Z,101207.66
2019-04-03T19:22:46.806Z,101206.47
2019-04-03T19:25:27.899Z,101201.56
2019-04-03T19:28:27.263Z,101205.38
2019-04-03T19:31:20.182Z,101201.31
2019-04-03T19:34:02.477Z,101195.43
2019-04-03T19:36:47.979Z,101187.45
2019-04-03T19:39:26.307Z,101182.41
2019-04-03T19:41:59.834Z,101191.02
2019-04-03T19:44:36.356Z,101185.48
2019-04-03T19:47:15.354Z,101184.80
2019-04-03T19:50:01.452Z,101183.69
2019-04-03T19:52:41.774Z,101179.31
2019-04-03T19:55:31.321Z,101187.40
2019-04-03T20:02:00.489Z,101194.87
2019-04-03T20:04:48.833Z,101197.92
2019-04-03T20:07:29.394Z,101191.66
2019-04-03T20:10:14.898Z,101189.66
2019-04-03T20:12:54.336Z,101191.07
2019-04-03T20:15:38.079Z,101195.48
2019-04-03T20:18:29.792Z,101193.98
2019-04-03T20:21:08.470Z,101197.01
2019-04-03T20:23:49.736Z,101198.55
2019-04-03T20:26:28.565Z,101197.53
2019-04-03T20:29:18.949Z,101200.56
2019-04-03T20:31:55.789Z,101193.96
2019-04-03T20:34:45.424Z,101193.97
2019-04-03T20:37:25.981Z,101188.07
2019-04-03T20:40:04.052Z,101192.45
2019-04-03T20:42:50.581Z,101188.56
2019-04-03T20:45:43.822Z,101186.67
2019-04-03T20:48:28.296Z,101187.86
2019-04-03T20:51:02.252Z,101196.81
2019-04-03T20:53:33.854Z,101193.26
2019-04-03T20:56:05.580Z,101188.38
2019-04-03T21:02:08.013Z,101187.41
2019-04-03T21:08:50.341Z,101185.72
2019-04-03T21:15:17.252Z,101178.16
2019-04-03T21:24:34.112Z,101181.20
2019-04-03T21:33:53.006Z,101170.39
2019-04-03T21:43:59.637Z,101167.67
2019-04-03T21:46:54.330Z,101171.56
2019-04-03T21:49:55.496Z,101174.93
2019-04-03T21:56:22.959Z,101177.13
2019-04-03T21:59:22.718Z,101170.05
2019-04-03T22:01:58.848Z,101170.69
2019-04-03T22:04:29.467Z,101168.33
2019-04-03T22:07:33.292Z,101170.52
2019-04-03T22:10:09.083Z,101165.28
2019-04-03T22:12:45.016Z,101163.91
2019-04-03T22:15:18.476Z,101164.58
2019-04-03T22:17:53.598Z,101166.94
2019-04-03T22:20:36.394Z,101169.30
2019-04-03T22:23:11.903Z,101167.09
2019-04-03T22:25:49.078Z,101163.84
2019-04-03T22:28:19.680Z,101165.20
2019-04-03T22:31:08.035Z,101167.70
2019-04-03T22:33:40.078Z,101160.09
2019-04-03T22:36:13.921Z,101168.66
2019-04-03T22:39:08.124Z,101162.61
2019-04-03T22:42:02.555Z,101165.81
2019-04-03T22:44:37.244Z,101159.40
2019-04-03T22:47:25.187Z,101164.30
2019-04-03T22:50:00.287Z,101163.09
2019-04-03T22:52:55.580Z,101169.31
2019-04-03T22:59:28.691Z,101171.45
2019-04-03T23:05:40.144Z,101162.16
2019-04-03T23:08:34.140Z,101163.50
2019-04-03T23:14:38.896Z,101158.08
2019-04-03T23:21:26.589Z,101154.71
2019-04-03T23:24:24.966Z,101151.19
2019-04-03T23:27:32.842Z,101146.59
2019-04-03T23:31:15.103Z,101146.28
2019-04-03T23:37:20.815Z,101144.70
2019-04-03T23:40:35.350Z,101149.41
2019-04-03T23:53:45.894Z,101137.84
2019-04-03T23:59:24.748Z,101129.92
